Time;durP1;ratioP1;P1;durP2;ratioP2;P2;SDS_P1;SDS_P2;PMS_P1;PMS_P2;Temp;Humidity;BMP_temperature;BMP_pressure;BME280_temperature;BME280_humidity;BME280_pressure;Samples;Min_cycle;Max_cycle;Signal;HPM_P1;HPM_P2
2022/01/11 00:00:36;;;;;;;16.02;10.27;;;10.90;99.90;;;;;;5043273;28;20101;-73
2022/01/11 00:03:06;;;;;;;15.10;10.15;;;10.80;99.90;;;;;;5040641;28;20037;-73
2022/01/11 00:05:44;;;;;;;12.60;9.90;;;10.80;99.90;;;;;;5042959;28;20033;-73
2022/01/11 00:08:11;;;;;;;14.88;10.27;;;10.80;99.90;;;;;;5021032;28;20043;-74
2022/01/11 00:10:49;;;;;;;15.98;10.52;;;10.80;99.90;;;;;;5046844;28;20041;-72
2022/01/11 00:13:19;;;;;;;14.93;10.30;;;10.80;99.90;;;;;;5040065;28;20066;-74
2022/01/11 00:15:47;;;;;;;14.73;10.32;;;10.80;99.90;;;;;;5028468;28;20117;-74
2022/01/11 00:18:14;;;;;;;13.98;10.13;;;10.70;99.90;;;;;;5012321;28;20040;-73
2022/01/11 00:20:41;;;;;;;14.25;10.35;;;10.70;99.90;;;;;;5042000;28;20103;-73
2022/01/11 00:25:39;;;;;;;14.88;9.88;;;10.70;99.90;;;;;;5042416;28;20565;-76
2022/01/11 00:28:08;;;;;;;14.48;10.10;;;10.60;99.90;;;;;;5039727;28;20037;-76
2022/01/11 00:30:38;;;;;;;16.95;10.82;;;10.60;99.90;;;;;;5047667;28;20037;-76
2022/01/11 00:33:09;;;;;;;13.73;11.05;;;10.60;99.90;;;;;;5036670;28;20037;-73
2022/01/11 00:35:42;;;;;;;14.85;11.05;;;10.50;99.90;;;;;;5040895;28;20033;-74
2022/01/11 00:38:16;;;;;;;13.75;9.57;;;10.40;99.90;;;;;;5046058;28;20487;-73
2022/01/11 00:40:59;;;;;;;14.95;9.63;;;10.30;99.90;;;;;;5038641;28;20021;-75
2022/01/11 00:43:27;;;;;;;12.98;9.35;;;10.20;99.90;;;;;;5027646;28;20097;-75
2022/01/11 00:45:55;;;;;;;13.93;9.10;;;10.10;99.90;;;;;;5014722;28;20049;-77
2022/01/11 00:48:22;;;;;;;11.48;8.95;;;10.00;99.90;;;;;;5037537;28;20041;-75
2022/01/11 00:50:49;;;;;;;10.02;7.72;;;9.90;99.90;;;;;;5043771;28;20036;-73
2022/01/11 00:53:15;;;;;;;10.43;7.43;;;9.80;99.90;;;;;;5040101;28;20073;-75
2022/01/11 00:55:43;;;;;;;12.38;7.72;;;9.70;99.90;;;;;;5043709;28;20064;-73
2022/01/11 00:58:09;;;;;;;10.57;7.32;;;9.70;99.90;;;;;;5037066;28;20454;-73
2022/01/11 01:00:37;;;;;;;13.40;8.52;;;9.60;99.90;;;;;;5048222;28;20140;-73
2022/01/11 01:03:05;;;;;;;10.93;8.25;;;9.60;99.90;;;;;;5046216;28;20048;-75
2022/01/11 01:05:32;;;;;;;14.65;9.35;;;9.40;99.90;;;;;;5038793;28;20043;-75
2022/01/11 01:07:59;;;;;;;13.35;8.90;;;9.40;99.90;;;;;;5037452;28;20049;-74
2022/01/11 01:10:29;;;;;;;11.20;8.57;;;9.30;99.90;;;;;;5038779;28;20057;-74
2022/01/11 01:12:58;;;;;;;13.80;8.93;;;9.30;99.90;;;;;;5041546;28;20137;-75
2022/01/11 01:15:27;;;;;;;11.02;7.90;;;9.20;99.90;;;;;;5040690;28;20068;-74
2022/01/11 01:17:55;;;;;;;12.93;9.05;;;9.10;99.90;;;;;;5039252;28;20045;-76
2022/01/11 01:20:22;;;;;;;11.85;8.70;;;9.00;99.90;;;;;;5040586;28;20491;-75
2022/01/11 01:22:50;;;;;;;11.23;8.70;;;9.00;99.90;;;;;;5022068;28;20129;-72
2022/01/11 01:25:23;;;;;;;10.25;7.50;;;9.00;99.90;;;;;;5039464;28;20476;-74
2022/01/11 01:27:52;;;;;;;11.32;7.45;;;9.10;99.90;;;;;;5041266;28;20067;-73
2022/01/11 01:30:20;;;;;;;10.25;6.22;;;9.10;99.90;;;;;;5045800;28;20434;-74
2022/01/11 01:32:49;;;;;;;11.32;6.85;;;9.20;99.90;;;;;;5039410;28;20050;-73
2022/01/11 01:35:16;;;;;;;9.27;6.22;;;9.20;99.90;;;;;;5039056;28;20074;-74
2022/01/11 01:37:42;;;;;;;7.95;6.05;;;9.10;99.90;;;;;;5043855;28;20043;-74
2022/01/11 01:40:12;;;;;;;8.05;5.88;;;9.00;99.90;;;;;;5043328;28;20124;-74
2022/01/11 01:42:39;;;;;;;9.48;6.22;;;8.90;99.90;;;;;;5024717;28;20636;-73
2022/01/11 01:45:05;;;;;;;9.27;6.10;;;8.80;99.90;;;;;;5040965;28;20037;-73
2022/01/11 01:47:31;;;;;;;7.47;4.95;;;8.80;99.90;;;;;;5027414;28;20464;-74
2022/01/11 01:49:57;;;;;;;6.05;4.45;;;8.80;99.90;;;;;;5041278;28;20037;-73
2022/01/11 01:52:24;;;;;;;8.80;5.13;;;8.80;99.90;;;;;;5037126;28;20063;-73
2022/01/11 01:54:52;;;;;;;7.72;4.88;;;8.80;99.90;;;;;;5046777;28;20029;-73
2022/01/11 01:57:18;;;;;;;7.25;4.63;;;8.70;99.90;;;;;;5039261;28;20056;-75
2022/01/11 01:59:45;;;;;;;5.82;3.80;;;8.70;99.90;;;;;;5046079;28;20116;-72
2022/01/11 02:02:13;;;;;;;6.70;4.63;;;8.70;99.90;;;;;;5020805;28;20389;-73
2022/01/11 02:04:41;;;;;;;6.25;4.28;;;8.60;99.90;;;;;;5041619;28;20053;-73
2022/01/11 02:07:07;;;;;;;6.40;3.90;;;8.50;99.90;;;;;;5036566;28;20040;-73
2022/01/11 02:09:33;;;;;;;4.95;2.95;;;8.50;99.90;;;;;;5046838;28;20033;-75
2022/01/11 02:11:59;;;;;;;5.43;3.45;;;8.50;99.90;;;;;;5035357;28;20092;-72
2022/01/11 02:14:26;;;;;;;5.65;3.40;;;8.40;99.90;;;;;;5038656;28;20410;-75
2022/01/11 02:16:56;;;;;;;5.80;3.00;;;8.40;99.90;;;;;;5046397;28;20033;-74
2022/01/11 02:19:22;;;;;;;5.68;3.08;;;8.50;99.90;;;;;;5049361;28;22323;-72
2022/01/11 02:21:48;;;;;;;6.47;2.97;;;8.50;99.90;;;;;;5042399;28;20067;-74
2022/01/11 02:24:18;;;;;;;5.20;2.88;;;8.50;99.90;;;;;;5042933;28;20052;-76
2022/01/11 02:26:45;;;;;;;5.85;3.15;;;8.40;99.90;;;;;;5026203;28;20034;-76
2022/01/11 02:29:12;;;;;;;5.70;2.95;;;8.40;99.90;;;;;;5045698;28;20041;-73
2022/01/11 02:31:38;;;;;;;3.80;2.47;;;8.30;99.90;;;;;;5041064;28;20179;-73
2022/01/11 02:34:05;;;;;;;4.93;2.92;;;8.40;99.90;;;;;;5041480;28;20511;-73
2022/01/11 02:36:34;;;;;;;4.57;2.65;;;8.30;99.90;;;;;;5043176;28;20041;-74
2022/01/11 02:39:02;;;;;;;4.35;2.60;;;8.40;99.90;;;;;;5043801;28;20372;-73
2022/01/11 02:41:30;;;;;;;4.32;2.30;;;8.40;99.90;;;;;;5039647;28;20044;-73
2022/01/11 02:43:58;;;;;;;4.57;2.58;;;8.50;99.90;;;;;;5039384;28;20041;-73
2022/01/11 02:46:25;;;;;;;6.20;2.72;;;8.50;99.90;;;;;;5049973;28;20487;-74
2022/01/11 02:48:53;;;;;;;5.50;2.60;;;8.40;99.90;;;;;;5040703;28;20029;-75
2022/01/11 02:51:19;;;;;;;5.45;3.50;;;8.50;99.90;;;;;;5044942;28;20041;-73
2022/01/11 02:53:48;;;;;;;7.18;3.47;;;8.60;99.90;;;;;;5036275;28;20045;-74
2022/01/11 02:56:16;;;;;;;5.22;3.70;;;8.80;99.90;;;;;;5043340;28;20438;-73
2022/01/11 02:58:43;;;;;;;4.80;3.50;;;8.70;99.90;;;;;;5045082;28;20048;-74
2022/01/11 03:01:11;;;;;;;7.22;4.00;;;8.60;99.90;;;;;;5040711;28;20069;-73
2022/01/11 03:03:38;;;;;;;6.53;4.05;;;8.50;99.90;;;;;;5049231;28;20032;-75
2022/01/11 03:06:06;;;;;;;6.07;3.38;;;8.70;99.90;;;;;;5037996;28;20392;-73
2022/01/11 03:08:35;;;;;;;8.73;4.15;;;8.70;99.90;;;;;;5045706;28;20083;-74
2022/01/11 03:11:02;;;;;;;7.00;4.40;;;8.70;99.90;;;;;;5045134;28;20108;-73
2022/01/11 03:13:28;;;;;;;7.15;4.25;;;8.60;99.90;;;;;;5043424;28;20033;-73
2022/01/11 03:15:54;;;;;;;6.32;4.15;;;8.50;99.90;;;;;;5041885;28;20048;-73
2022/01/11 03:18:21;;;;;;;5.95;4.18;;;8.40;99.90;;;;;;5040778;28;20095;-73
2022/01/11 03:20:51;;;;;;;6.00;3.97;;;8.40;99.90;;;;;;5046040;28;20059;-73
2022/01/11 03:23:18;;;;;;;7.22;5.15;;;8.40;99.90;;;;;;5043776;28;20033;-74
2022/01/11 03:25:47;;;;;;;8.68;5.45;;;8.30;99.90;;;;;;5040941;28;20059;-73
2022/01/11 03:28:14;;;;;;;9.68;6.72;;;8.30;99.90;;;;;;5044007;28;20045;-72
2022/01/11 03:30:40;;;;;;;11.13;6.90;;;8.30;99.90;;;;;;5053450;28;20099;-74
2022/01/11 03:33:08;;;;;;;10.95;7.50;;;8.20;99.90;;;;;;5042872;28;20041;-73
2022/01/11 03:35:36;;;;;;;12.80;7.82;;;8.30;99.90;;;;;;5041011;28;20033;-74
2022/01/11 03:38:05;;;;;;;10.50;7.88;;;8.20;99.90;;;;;;5045734;28;20076;-73
2022/01/11 03:40:32;;;;;;;11.10;6.97;;;8.20;99.90;;;;;;5040839;28;20033;-73
2022/01/11 03:42:59;;;;;;;10.30;7.18;;;8.20;99.90;;;;;;5012268;28;20430;-75
2022/01/11 03:45:26;;;;;;;11.48;7.30;;;8.20;99.90;;;;;;5021521;28;21777;-75
2022/01/11 03:47:55;;;;;;;10.25;6.72;;;8.20;99.90;;;;;;5037042;28;20576;-74
2022/01/11 03:50:22;;;;;;;10.27;6.28;;;8.20;99.90;;;;;;5039916;28;20099;-75
2022/01/11 03:52:55;;;;;;;6.78;5.18;;;8.10;99.90;;;;;;5048171;28;20086;-73
2022/01/11 03:55:32;;;;;;;6.75;4.40;;;8.10;99.90;;;;;;5037606;28;20049;-73
2022/01/11 03:57:58;;;;;;;6.15;4.03;;;8.10;99.90;;;;;;5039989;28;20488;-73
2022/01/11 04:00:24;;;;;;;6.88;3.95;;;8.20;99.90;;;;;;5044276;28;20641;-73
2022/01/11 04:02:51;;;;;;;6.82;4.40;;;8.30;99.90;;;;;;5040633;28;20044;-74
2022/01/11 04:05:16;;;;;;;6.38;4.65;;;8.20;99.90;;;;;;5041898;28;20065;-74
2022/01/11 04:07:42;;;;;;;7.43;4.38;;;8.10;99.90;;;;;;5040099;28;20083;-74
2022/01/11 04:10:10;;;;;;;9.35;4.38;;;8.00;99.90;;;;;;5055034;28;20099;-73
2022/01/11 04:12:36;;;;;;;7.88;4.85;;;8.00;99.90;;;;;;5059705;28;20067;-73
2022/01/11 04:15:03;;;;;;;6.72;4.28;;;7.90;99.90;;;;;;5042001;28;20041;-73
2022/01/11 04:17:28;;;;;;;9.60;5.80;;;7.80;99.90;;;;;;5050043;28;20033;-74
2022/01/11 04:19:55;;;;;;;8.00;5.22;;;7.90;99.90;;;;;;5045714;28;20043;-73
2022/01/11 04:22:21;;;;;;;8.63;5.72;;;8.10;99.90;;;;;;5040990;28;20141;-76
2022/01/11 04:24:47;;;;;;;9.90;6.80;;;8.10;99.90;;;;;;5037277;28;20469;-73
2022/01/11 04:27:13;;;;;;;12.07;7.47;;;8.30;99.90;;;;;;5034393;28;20522;-74
2022/01/11 04:29:39;;;;;;;12.32;7.57;;;8.50;99.90;;;;;;5033922;28;20060;-73
2022/01/11 04:32:06;;;;;;;14.00;8.35;;;8.60;99.90;;;;;;5038901;28;20136;-73
2022/01/11 04:34:32;;;;;;;11.30;7.50;;;8.60;99.90;;;;;;5040538;28;20032;-73
2022/01/11 04:36:58;;;;;;;12.18;8.00;;;8.80;99.90;;;;;;5038418;28;20049;-73
2022/01/11 04:39:25;;;;;;;12.80;7.75;;;8.90;99.90;;;;;;5041395;28;20140;-74
2022/01/11 04:41:53;;;;;;;13.07;8.05;;;8.80;99.90;;;;;;5043454;28;20468;-73
2022/01/11 04:44:19;;;;;;;12.90;8.63;;;8.70;99.90;;;;;;5035222;28;20116;-73
2022/01/11 04:46:45;;;;;;;14.18;9.80;;;8.60;99.90;;;;;;5035082;28;20119;-74
2022/01/11 04:49:11;;;;;;;16.05;11.07;;;8.50;99.90;;;;;;5040551;28;20108;-72
2022/01/11 04:51:37;;;;;;;16.35;10.95;;;8.40;99.90;;;;;;5038354;28;20552;-73
2022/01/11 04:54:04;;;;;;;16.05;10.77;;;8.30;99.90;;;;;;5035985;28;20033;-74
2022/01/11 04:56:31;;;;;;;17.95;10.65;;;8.20;99.90;;;;;;5036429;28;20033;-74
2022/01/11 04:58:58;;;;;;;15.35;10.75;;;8.20;99.90;;;;;;5038656;28;20171;-73
2022/01/11 05:01:24;;;;;;;17.23;10.93;;;8.20;99.90;;;;;;5042073;28;20029;-73
2022/01/11 05:03:50;;;;;;;17.70;12.20;;;8.00;99.90;;;;;;5035407;28;20148;-74
2022/01/11 05:06:15;;;;;;;17.20;11.93;;;8.00;99.90;;;;;;5039112;28;20040;-72
2022/01/11 05:08:44;;;;;;;16.05;11.95;;;7.90;99.90;;;;;;5045772;28;20041;-73
2022/01/11 05:11:10;;;;;;;18.67;12.75;;;7.80;99.90;;;;;;5039851;28;20032;-73
2022/01/11 05:13:35;;;;;;;17.42;12.23;;;7.80;99.90;;;;;;5040303;28;20111;-73
2022/01/11 05:16:02;;;;;;;19.02;12.10;;;7.70;99.90;;;;;;5037984;28;20037;-74
2022/01/11 05:18:30;;;;;;;15.90;11.50;;;7.70;99.90;;;;;;5045748;28;20044;-74
2022/01/11 05:20:57;;;;;;;20.20;11.75;;;7.70;99.90;;;;;;5025193;28;20041;-73
2022/01/11 05:23:23;;;;;;;18.10;12.63;;;7.70;99.90;;;;;;5036600;28;22722;-74
2022/01/11 05:25:49;;;;;;;19.23;13.63;;;7.70;99.90;;;;;;5037615;28;20030;-72
2022/01/11 05:28:16;;;;;;;18.40;13.20;;;7.60;99.90;;;;;;5035152;28;20037;-73
2022/01/11 05:30:42;;;;;;;16.85;12.38;;;7.50;99.90;;;;;;5037062;28;20037;-74
2022/01/11 05:33:08;;;;;;;22.25;13.05;;;7.50;99.90;;;;;;5035663;28;20041;-73
2022/01/11 05:35:34;;;;;;;15.10;12.32;;;7.60;99.90;;;;;;5033942;28;20061;-73
2022/01/11 05:37:59;;;;;;;17.42;12.82;;;7.40;99.90;;;;;;5041999;28;20046;-73
2022/01/11 05:40:25;;;;;;;17.80;12.57;;;7.30;99.90;;;;;;5038492;28;20049;-73
2022/01/11 05:42:52;;;;;;;18.52;12.48;;;7.30;99.90;;;;;;5036214;28;20045;-74
2022/01/11 05:45:18;;;;;;;16.83;13.02;;;7.30;99.90;;;;;;5040902;28;20033;-73
2022/01/11 05:47:47;;;;;;;19.52;13.23;;;7.30;99.90;;;;;;5043560;28;20048;-72
2022/01/11 05:50:14;;;;;;;19.45;13.63;;;7.30;99.90;;;;;;5012256;28;20112;-74
2022/01/11 05:52:42;;;;;;;16.90;13.38;;;7.30;99.90;;;;;;5042549;28;20060;-73
2022/01/11 05:55:11;;;;;;;18.92;13.40;;;7.20;99.90;;;;;;5050547;28;20543;-74
2022/01/11 05:57:38;;;;;;;18.40;13.88;;;7.10;99.90;;;;;;5046788;28;20029;-73
2022/01/11 06:00:08;;;;;;;20.25;14.20;;;7.20;99.90;;;;;;5038705;28;20120;-74
2022/01/11 06:02:35;;;;;;;19.17;13.88;;;7.10;99.90;;;;;;5043967;28;20033;-75
2022/01/11 06:05:01;;;;;;;17.30;13.00;;;7.00;99.90;;;;;;5042281;28;20038;-73
2022/01/11 06:07:27;;;;;;;20.27;15.05;;;7.10;99.90;;;;;;5042821;28;20033;-73
2022/01/11 06:09:54;;;;;;;19.65;13.48;;;7.20;99.90;;;;;;5044528;28;20041;-74
2022/01/11 06:12:20;;;;;;;18.77;13.73;;;7.20;99.90;;;;;;5042097;28;20120;-73
2022/01/11 06:14:48;;;;;;;23.75;14.18;;;7.20;99.90;;;;;;5029301;28;20097;-74
2022/01/11 06:17:14;;;;;;;20.98;13.82;;;7.20;99.90;;;;;;5039840;28;20087;-73
2022/01/11 06:19:39;;;;;;;23.98;15.38;;;7.20;99.90;;;;;;5045302;28;20026;-73
2022/01/11 06:22:05;;;;;;;28.60;16.20;;;7.30;99.90;;;;;;5047356;28;20036;-74
2022/01/11 06:24:32;;;;;;;18.63;13.57;;;7.30;99.90;;;;;;5052283;28;20067;-75
2022/01/11 06:26:57;;;;;;;22.38;14.73;;;7.20;99.90;;;;;;5042874;28;20091;-74
2022/01/11 06:29:23;;;;;;;22.85;15.05;;;7.10;99.90;;;;;;5042784;28;20040;-74
2022/01/11 06:31:49;;;;;;;19.45;14.23;;;7.20;99.90;;;;;;5043950;28;20037;-73
2022/01/11 06:34:15;;;;;;;20.17;14.95;;;7.30;99.90;;;;;;5042060;28;20086;-74
2022/01/11 06:36:41;;;;;;;19.90;15.27;;;7.30;99.90;;;;;;5042630;28;20119;-74
2022/01/11 06:39:07;;;;;;;20.35;14.88;;;7.40;99.90;;;;;;5042480;28;20038;-74
2022/01/11 06:41:35;;;;;;;22.80;14.98;;;7.50;99.90;;;;;;5039016;28;20084;-73
2022/01/11 06:44:05;;;;;;;23.65;15.18;;;7.70;99.90;;;;;;5044050;28;20033;-75
2022/01/11 06:46:31;;;;;;;21.95;14.45;;;7.70;99.90;;;;;;5040011;28;20049;-74
2022/01/11 06:48:59;;;;;;;20.23;14.30;;;7.60;99.90;;;;;;5043953;28;20392;-74
2022/01/11 06:51:26;;;;;;;21.15;14.32;;;7.50;99.90;;;;;;5039454;28;20037;-74
2022/01/11 06:53:52;;;;;;;18.27;14.68;;;7.40;99.90;;;;;;5045868;28;20045;-74
2022/01/11 06:56:20;;;;;;;17.73;13.43;;;7.40;99.90;;;;;;5038959;28;20060;-74
2022/01/11 06:58:47;;;;;;;19.55;13.73;;;7.40;99.90;;;;;;5044318;28;20040;-76
2022/01/11 07:01:13;;;;;;;20.52;13.25;;;7.50;99.90;;;;;;5042974;28;20547;-73
2022/01/11 07:03:40;;;;;;;19.20;13.93;;;7.40;99.90;;;;;;5047275;28;20095;-73
2022/01/11 07:06:07;;;;;;;19.23;12.57;;;7.40;99.90;;;;;;5043587;28;20048;-73
2022/01/11 07:08:34;;;;;;;21.73;13.88;;;7.40;99.90;;;;;;5047980;28;20040;-74
2022/01/11 07:11:02;;;;;;;18.92;12.90;;;7.40;99.90;;;;;;5043436;28;20099;-74
2022/01/11 07:13:29;;;;;;;19.10;12.07;;;7.50;99.90;;;;;;5042666;28;20045;-74
2022/01/11 07:15:56;;;;;;;15.25;11.07;;;7.50;99.90;;;;;;5045341;28;20045;-73
2022/01/11 07:18:21;;;;;;;18.05;11.80;;;7.40;99.90;;;;;;5041653;28;20040;-73
2022/01/11 07:20:48;;;;;;;20.75;13.77;;;7.30;99.90;;;;;;5039036;28;20095;-75
2022/01/11 07:23:15;;;;;;;23.60;15.68;;;7.20;99.90;;;;;;5041894;28;20127;-75
2022/01/11 07:25:41;;;;;;;26.75;14.98;;;7.40;99.90;;;;;;5048682;28;20118;-74
2022/01/11 07:28:11;;;;;;;25.77;16.92;;;7.70;99.90;;;;;;5043493;28;20036;-74
2022/01/11 07:30:36;;;;;;;25.33;16.58;;;7.70;99.90;;;;;;5045455;28;20495;-72
2022/01/11 07:33:03;;;;;;;26.85;16.45;;;7.80;99.90;;;;;;5042718;28;20133;-74
2022/01/11 07:35:29;;;;;;;24.13;16.95;;;7.90;99.90;;;;;;5042974;28;20036;-74
2022/01/11 07:37:55;;;;;;;25.25;15.48;;;7.90;99.90;;;;;;5039205;28;20418;-73
2022/01/11 07:40:22;;;;;;;20.73;14.18;;;7.80;99.90;;;;;;5040798;28;20029;-74
2022/01/11 07:42:51;;;;;;;25.45;14.90;;;7.80;99.90;;;;;;5046318;28;20083;-75
2022/01/11 07:45:18;;;;;;;22.67;15.10;;;7.80;99.90;;;;;;5050212;28;20040;-75
2022/01/11 07:47:45;;;;;;;24.75;16.00;;;8.10;99.90;;;;;;5040989;28;20120;-74
2022/01/11 07:50:12;;;;;;;25.35;14.48;;;8.30;99.90;;;;;;5044391;28;20124;-75
2022/01/11 07:52:38;;;;;;;22.80;13.68;;;8.50;99.90;;;;;;5049111;28;20083;-75
2022/01/11 07:55:05;;;;;;;19.77;13.07;;;8.80;99.90;;;;;;5042086;28;20631;-75
2022/01/11 07:57:32;;;;;;;23.75;14.65;;;8.90;99.90;;;;;;5047317;28;20124;-74
2022/01/11 07:59:58;;;;;;;24.05;14.40;;;8.90;99.90;;;;;;5028171;28;20034;-74
2022/01/11 08:02:24;;;;;;;25.73;14.00;;;9.10;99.90;;;;;;5043183;28;20044;-74
2022/01/11 08:04:54;;;;;;;25.13;14.77;;;9.00;99.90;;;;;;5040027;28;20037;-75
2022/01/11 08:07:21;;;;;;;21.98;14.15;;;8.90;99.90;;;;;;5041038;28;20083;-75
2022/01/11 08:09:48;;;;;;;20.90;14.05;;;8.90;99.90;;;;;;5042180;28;20071;-77
2022/01/11 08:12:14;;;;;;;24.85;14.60;;;8.80;99.90;;;;;;5038700;28;20045;-74
2022/01/11 08:14:40;;;;;;;22.10;14.77;;;8.80;99.90;;;;;;5040726;28;20036;-76
2022/01/11 08:17:06;;;;;;;27.23;15.00;;;8.90;99.90;;;;;;5048772;28;20044;-75
2022/01/11 08:19:33;;;;;;;21.88;15.18;;;8.90;99.90;;;;;;5047887;28;20029;-74
2022/01/11 08:22:00;;;;;;;26.83;15.90;;;9.00;99.90;;;;;;5043451;28;20037;-73
2022/01/11 08:24:26;;;;;;;26.73;15.98;;;9.00;99.90;;;;;;5046126;28;20040;-74
2022/01/11 08:26:53;;;;;;;24.05;15.27;;;9.60;99.90;;;;;;5038002;28;20033;-76
2022/01/11 08:29:22;;;;;;;23.95;16.48;;;9.90;99.90;;;;;;5025187;28;20523;-74
2022/01/11 08:31:50;;;;;;;23.83;16.42;;;10.00;99.90;;;;;;5047411;28;20033;-74
2022/01/11 08:34:17;;;;;;;17.98;13.73;;;11.50;99.90;;;;;;5054650;28;20049;-75
2022/01/11 08:36:50;;;;;;;16.13;11.82;;;12.90;99.90;;;;;;5036414;28;20029;-73
2022/01/11 08:39:18;;;;;;;18.38;11.23;;;14.00;99.90;;;;;;5046314;28;20037;-73
2022/01/11 08:41:44;;;;;;;19.35;12.95;;;14.30;99.90;;;;;;5049383;28;20388;-73
2022/01/11 08:44:10;;;;;;;20.30;11.80;;;15.10;99.90;;;;;;5038232;28;20048;-74
2022/01/11 08:46:43;;;;;;;20.08;11.98;;;15.60;99.90;;;;;;5041084;28;20029;-74
2022/01/11 08:49:12;;;;;;;18.00;11.40;;;16.10;99.90;;;;;;5035788;28;20080;-74
2022/01/11 08:51:38;;;;;;;18.30;11.98;;;16.80;99.90;;;;;;5047666;28;20029;-74
2022/01/11 08:54:04;;;;;;;18.30;10.73;;;17.10;99.90;;;;;;5040575;28;20524;-75
2022/01/11 08:56:31;;;;;;;15.38;11.05;;;17.40;99.90;;;;;;5045407;28;20453;-74
2022/01/11 08:58:58;;;;;;;15.82;10.32;;;17.50;99.90;;;;;;5029002;28;20045;-75
2022/01/11 09:01:26;;;;;;;17.02;9.45;;;17.60;99.90;;;;;;5023548;28;20034;-75
2022/01/11 09:03:52;;;;;;;14.32;9.10;;;17.00;99.90;;;;;;5022723;28;20051;-75
2022/01/11 09:06:19;;;;;;;14.30;8.52;;;15.90;99.90;;;;;;5011157;28;20127;-77
2022/01/11 09:08:45;;;;;;;11.23;7.63;;;14.70;99.90;;;;;;5029923;28;20052;-74
2022/01/11 09:11:11;;;;;;;10.00;7.35;;;13.70;99.90;;;;;;5036524;28;20037;-74
2022/01/11 09:13:38;;;;;;;10.25;6.85;;;13.10;99.90;;;;;;5038426;28;20045;-74
2022/01/11 09:16:06;;;;;;;10.02;6.03;;;12.60;99.90;;;;;;5040030;28;20049;-74
2022/01/11 09:18:32;;;;;;;10.98;5.68;;;12.10;99.90;;;;;;5041840;28;20520;-75
2022/01/11 09:21:00;;;;;;;10.30;5.50;;;12.00;99.90;;;;;;5042184;28;20725;-76
2022/01/11 09:23:30;;;;;;;10.38;6.63;;;12.10;99.90;;;;;;5045058;28;20482;-76
2022/01/11 09:25:59;;;;;;;13.20;7.18;;;12.20;99.90;;;;;;5008522;28;20037;-74
2022/01/11 09:28:26;;;;;;;12.15;7.25;;;12.50;99.90;;;;;;5026299;28;20040;-74
2022/01/11 09:30:52;;;;;;;9.93;6.82;;;12.60;99.90;;;;;;5024434;28;20104;-75
2022/01/11 09:33:18;;;;;;;11.95;7.72;;;12.80;99.90;;;;;;5021967;28;20045;-75
2022/01/11 09:35:45;;;;;;;10.23;6.82;;;13.10;99.90;;;;;;5025337;28;20044;-75
2022/01/11 09:38:12;;;;;;;10.10;5.95;;;13.30;99.90;;;;;;5024217;28;20167;-73
2022/01/11 09:40:38;;;;;;;9.25;6.25;;;13.40;99.90;;;;;;5028388;28;21327;-75
2022/01/11 09:43:04;;;;;;;9.82;5.53;;;13.80;99.90;;;;;;5020028;28;20114;-75
2022/01/11 09:45:31;;;;;;;9.18;5.50;;;13.60;99.90;;;;;;5022052;28;20183;-74
2022/01/11 09:47:57;;;;;;;9.30;5.15;;;13.80;99.90;;;;;;5021424;28;20162;-75
2022/01/11 09:50:24;;;;;;;11.15;6.28;;;13.80;99.90;;;;;;5026865;28;20496;-76
2022/01/11 09:52:51;;;;;;;10.07;6.32;;;13.60;99.90;;;;;;5030212;28;20050;-74
2022/01/11 09:55:18;;;;;;;13.63;6.50;;;13.50;99.90;;;;;;5028145;28;20493;-76
2022/01/11 09:57:44;;;;;;;19.08;7.25;;;13.60;99.90;;;;;;5027073;28;20384;-76
2022/01/11 10:00:12;;;;;;;14.00;7.85;;;13.70;99.90;;;;;;5029522;28;20050;-74
2022/01/11 10:02:38;;;;;;;11.98;7.53;;;13.70;99.90;;;;;;5027284;28;20538;-75
2022/01/11 10:05:09;;;;;;;12.68;6.43;;;13.60;99.90;;;;;;5024827;28;20072;-75
2022/01/11 10:07:40;;;;;;;11.93;6.68;;;13.30;99.90;;;;;;5027744;28;20037;-80
2022/01/11 10:10:19;;;;;;;9.63;5.85;;;13.80;99.90;;;;;;5028123;28;20041;-77
2022/01/11 10:12:50;;;;;;;14.88;7.03;;;14.20;99.90;;;;;;5043030;28;20033;-77
2022/01/11 10:15:40;;;;;;;9.02;5.70;;;14.30;99.90;;;;;;5023635;28;20815;-74
2022/01/11 10:18:10;;;;;;;11.27;5.32;;;14.80;99.90;;;;;;5020899;28;20611;-78
2022/01/11 10:20:36;;;;;;;9.50;4.95;;;14.70;99.90;;;;;;5025245;28;20118;-75
2022/01/11 10:23:05;;;;;;;9.43;5.18;;;14.60;99.90;;;;;;5019954;28;20041;-77
2022/01/11 10:25:42;;;;;;;11.23;6.35;;;14.30;99.90;;;;;;5024842;28;20099;-76
2022/01/11 10:28:09;;;;;;;10.25;5.55;;;14.60;99.90;;;;;;5026905;28;20064;-77
2022/01/11 10:30:36;;;;;;;9.52;5.03;;;14.40;99.90;;;;;;5028714;28;20049;-77
2022/01/11 10:33:06;;;;;;;9.25;5.18;;;14.70;99.90;;;;;;5024023;28;20044;-76
2022/01/11 10:35:43;;;;;;;6.93;4.75;;;14.50;99.90;;;;;;5017577;28;20041;-76
2022/01/11 10:38:11;;;;;;;10.93;5.90;;;14.80;99.90;;;;;;5040358;28;20037;-74
2022/01/11 10:40:44;;;;;;;13.15;4.90;;;15.30;99.90;;;;;;5040926;28;20084;-76
2022/01/11 10:43:13;;;;;;;9.50;5.13;;;15.50;99.90;;;;;;5053781;28;20076;-76
2022/01/11 10:45:43;;;;;;;9.63;5.82;;;15.50;99.90;;;;;;5027165;28;20045;-75
2022/01/11 10:48:21;;;;;;;9.02;5.10;;;15.80;99.90;;;;;;5020187;28;20651;-74
2022/01/11 10:50:56;;;;;;;9.02;5.38;;;16.20;99.90;;;;;;5027122;28;20230;-77
2022/01/11 10:53:25;;;;;;;9.52;5.40;;;16.40;99.90;;;;;;5031938;28;20527;-74
2022/01/11 10:55:54;;;;;;;9.07;5.72;;;16.40;99.90;;;;;;5030813;28;20090;-74
2022/01/11 10:58:22;;;;;;;7.55;4.93;;;16.30;99.90;;;;;;5031404;28;20871;-74
2022/01/11 11:00:51;;;;;;;11.73;5.80;;;16.20;99.90;;;;;;5026175;28;20092;-76
2022/01/11 11:03:22;;;;;;;16.58;6.68;;;16.10;99.90;;;;;;5030641;28;20576;-74
2022/01/11 11:06:18;;;;;;;13.07;6.47;;;16.40;99.90;;;;;;5029525;28;20064;-75
2022/01/11 11:08:45;;;;;;;10.38;6.45;;;16.30;99.90;;;;;;5003826;28;20053;-74
2022/01/11 11:11:22;;;;;;;12.27;6.10;;;16.90;99.90;;;;;;5027148;28;20036;-75
2022/01/11 11:13:51;;;;;;;14.50;7.07;;;17.70;99.90;;;;;;5044306;28;20411;-75
2022/01/11 11:16:21;;;;;;;14.90;6.38;;;17.40;99.90;;;;;;5026757;28;20431;-73
2022/01/11 11:18:53;;;;;;;12.35;6.53;;;17.80;99.90;;;;;;5026767;28;25485;-75
2022/01/11 11:21:46;;;;;;;12.60;6.03;;;17.60;99.90;;;;;;5025137;28;20044;-72
2022/01/11 11:24:14;;;;;;;14.23;6.05;;;16.10;99.90;;;;;;5027146;28;20045;-73
2022/01/11 11:26:51;;;;;;;11.07;5.38;;;16.60;99.90;;;;;;5025774;28;20041;-75
2022/01/11 11:29:19;;;;;;;12.60;5.38;;;16.80;99.90;;;;;;5025512;28;20077;-73
2022/01/11 11:31:47;;;;;;;10.07;5.80;;;17.50;99.90;;;;;;5042724;28;20045;-75
2022/01/11 11:34:13;;;;;;;11.13;6.10;;;18.20;99.90;;;;;;5027839;28;20068;-76
2022/01/11 11:36:41;;;;;;;15.35;6.97;;;18.30;99.90;;;;;;5028552;28;20041;-74
2022/01/11 11:39:13;;;;;;;12.05;6.15;;;18.60;99.90;;;;;;5009547;28;20087;-75
2022/01/11 11:41:47;;;;;;;8.57;5.18;;;18.40;99.90;;;;;;5026069;28;20561;-75
2022/01/11 11:44:19;;;;;;;7.82;3.90;;;18.50;99.90;;;;;;5027809;28;20033;-74
2022/01/11 11:47:01;;;;;;;7.65;4.10;;;18.40;99.90;;;;;;5028184;28;20039;-73
2022/01/11 11:49:53;;;;;;;6.47;3.80;;;19.10;99.90;;;;;;5021783;28;20095;-75
2022/01/11 11:52:39;;;;;;;;;;;20.20;99.30;;;;;;5022248;28;20049;-74
2022/01/11 11:55:11;;;;;;;7.25;3.40;;;19.90;98.60;;;;;;5036063;28;19913;-74
2022/01/11 11:57:40;;;;;;;5.05;3.17;;;20.10;97.90;;;;;;5024507;28;20063;-74
2022/01/11 12:00:11;;;;;;;4.78;3.05;;;20.00;96.70;;;;;;5029784;28;20144;-73
2022/01/11 12:02:41;;;;;;;4.15;2.88;;;19.80;95.60;;;;;;5039515;28;20061;-74
2022/01/11 12:05:14;;;;;;;4.55;2.30;;;19.70;95.20;;;;;;5035872;28;20037;-74
2022/01/11 12:07:44;;;;;;;6.88;3.22;;;20.20;94.00;;;;;;5045356;28;20029;-75
2022/01/11 12:10:25;;;;;;;8.05;3.55;;;20.80;94.10;;;;;;5041560;28;20124;-75
2022/01/11 12:13:02;;;;;;;7.80;3.27;;;20.70;93.50;;;;;;5040240;28;20488;-76
2022/01/11 12:15:35;;;;;;;5.60;3.75;;;20.90;93.40;;;;;;5040500;28;20069;-76
2022/01/11 12:18:04;;;;;;;7.72;2.92;;;20.50;93.20;;;;;;5043075;28;20044;-74
2022/01/11 12:20:44;;;;;;;6.60;2.80;;;20.30;93.00;;;;;;5040631;28;20174;-73
2022/01/11 12:23:20;;;;;;;5.63;2.50;;;20.80;92.60;;;;;;5053926;28;20048;-74
2022/01/11 12:26:16;;;;;;;5.28;2.67;;;20.60;90.80;;;;;;5040548;28;20048;-74
2022/01/11 12:28:43;;;;;;;5.57;2.83;;;20.60;91.40;;;;;;5048744;28;20131;-74
2022/01/11 12:31:30;;;;;;;3.80;2.35;;;20.30;90.60;;;;;;5039967;28;20040;-76
2022/01/11 12:33:58;;;;;;;2.85;2.00;;;20.70;90.50;;;;;;5039145;28;20037;-78
2022/01/11 12:36:51;;;;;;;4.63;2.40;;;20.60;89.20;;;;;;5026986;28;20124;-77
2022/01/11 12:39:18;;;;;;;6.00;2.05;;;21.50;88.40;;;;;;5020968;28;20099;-74
2022/01/11 12:41:44;;;;;;;11.95;2.47;;;21.80;85.90;;;;;;5028368;28;20103;-75
2022/01/11 12:44:32;;;;;;;4.55;2.00;;;21.70;84.60;;;;;;5024491;28;20503;-74
2022/01/11 12:47:01;;;;;;;6.13;2.15;;;21.60;83.30;;;;;;5022859;28;20078;-79
2022/01/11 12:49:30;;;;;;;6.82;1.90;;;22.60;82.50;;;;;;5035967;28;20045;-76
2022/01/11 12:52:08;;;;;;;2.03;1.55;;;21.00;80.30;;;;;;5029479;28;20176;-75